Terminal Aerodrome Forecast
Issued by NWS Amarillo, TX

Home | Current Version | Previous Version | Text Only | Print | Product List | Glossary On
Versions: 1 2 3 4 5 6 7 8 9 10 11 12 13 14 15 16 17 18 19 20 21 22 23 24 25 26 27 28 29 30 31 32 33 34 35 36
000
FTUS44 KAMA 211200 AAA
TAFAMA
TAF AMD
KAMA 211236Z 2113/2212 18011KT 1SM BR OVC002
      TEMPO 2113/2115 1/4SM FZFG
     FM211600 23010KT P6SM FEW008 SCT150
     FM220600 27012KT P6SM SCT200=

USA.gov is the U.S. government's official web portal to all federal, state and local government web resources and services.